createdAt,value
2022-08-18T00:01:42.533Z,100219.28
2022-08-18T00:04:28.736Z,100218.44
2022-08-18T00:07:00.658Z,100214.13
2022-08-18T00:09:32.482Z,100209.78
2022-08-18T00:12:07.157Z,100211.47
2022-08-18T00:14:35.685Z,100213.94
2022-08-18T00:17:04.093Z,100213.69
2022-08-18T00:19:46.867Z,100217.81
2022-08-18T00:22:20.998Z,100213.91
2022-08-18T00:24:51.871Z,100209.31
2022-08-18T00:27:28.127Z,100212.56
2022-08-18T00:30:00.269Z,100206.13
2022-08-18T00:32:33.603Z,100208.56
2022-08-18T00:35:09.093Z,100210.16
2022-08-18T00:37:37.689Z,100206.38
2022-08-18T00:40:08.785Z,100205.25
2022-08-18T00:42:45.134Z,100205.13
2022-08-18T00:45:18.692Z,100200.53
2022-08-18T00:47:47.426Z,100199.44
2022-08-18T00:50:20.415Z,100191.28
2022-08-18T00:52:57.430Z,100177.06
2022-08-18T00:55:26.559Z,100180.56
2022-08-18T00:58:06.489Z,100176.22
2022-08-18T01:00:36.664Z,100175.22
2022-08-18T01:03:12.234Z,100177.91
2022-08-18T01:05:48.934Z,100189.59
2022-08-18T01:08:28.542Z,100192.38
2022-08-18T01:11:01.650Z,100209.50
2022-08-18T01:13:34.001Z,100213.16
2022-08-18T01:16:23.965Z,100213.16
2022-08-18T01:19:09.412Z,100209.75
2022-08-18T01:21:52.175Z,100199.31
2022-08-18T01:24:48.337Z,100208.56
2022-08-18T01:27:18.633Z,100195.56
2022-08-18T01:29:48.697Z,100206.63
2022-08-18T01:32:20.517Z,100205.06
2022-08-18T01:34:51.106Z,100208.09
2022-08-18T01:37:22.926Z,100223.28
2022-08-18T01:41:22.569Z,100221.69
2022-08-18T01:42:45.729Z,100221.00
2022-08-18T01:45:15.978Z,100214.91
2022-08-18T01:47:47.607Z,100214.91
2022-08-18T01:50:18.044Z,100211.47
2022-08-18T01:52:46.517Z,100219.47
2022-08-18T01:55:18.166Z,100214.13
2022-08-18T01:57:47.668Z,100210.03
2022-08-18T02:00:19.662Z,100219.13
2022-08-18T02:02:57.975Z,100207.00
2022-08-18T02:05:37.185Z,100218.03
2022-08-18T02:08:07.406Z,100206.91
2022-08-18T02:10:37.788Z,100210.03
2022-08-18T02:13:06.226Z,100210.41
2022-08-18T02:15:34.922Z,100206.28
2022-08-18T02:18:03.441Z,100200.31
2022-08-18T02:20:32.269Z,100209.44
2022-08-18T02:23:02.785Z,100204.19
2022-08-18T02:25:31.251Z,100210.53
2022-08-18T02:28:04.785Z,100206.97
2022-08-18T02:30:37.494Z,100201.78
2022-08-18T02:33:06.149Z,100210.75
2022-08-18T02:35:35.301Z,100204.53
2022-08-18T02:38:06.581Z,100209.03
2022-08-18T02:40:36.514Z,100205.66
2022-08-18T02:43:10.501Z,100205.66
2022-08-18T02:45:40.538Z,100205.66
2022-08-18T02:48:09.048Z,100206.63
2022-08-18T02:50:45.840Z,100216.56
2022-08-18T02:53:18.611Z,100218.50
2022-08-18T02:55:47.068Z,100225.78
2022-08-18T02:58:16.941Z,100224.09
2022-08-18T03:00:45.416Z,100224.31
2022-08-18T03:03:14.158Z,100223.47
2022-08-18T03:05:42.736Z,100226.38
2022-08-18T03:08:11.686Z,100216.66
2022-08-18T03:10:40.371Z,100203.44
2022-08-18T03:13:09.089Z,100216.78
2022-08-18T03:15:38.909Z,100214.97
2022-08-18T03:18:07.454Z,100219.47
2022-08-18T03:20:37.390Z,100209.63
2022-08-18T03:23:10.128Z,100204.28
2022-08-18T03:25:45.513Z,100199.81
2022-08-18T03:28:14.778Z,100197.03
2022-08-18T03:30:44.995Z,100202.22
2022-08-18T03:33:13.602Z,100196.16
2022-08-18T03:35:42.091Z,100213.88
2022-08-18T03:38:10.570Z,100208.53
2022-08-18T03:40:39.452Z,100214.59
2022-08-18T03:43:25.870Z,100216.31
2022-08-18T03:46:03.101Z,100207.56
2022-08-18T03:48:33.085Z,100210.72
2022-08-18T03:51:06.792Z,100205.13
2022-08-18T03:53:35.865Z,100208.78
2022-08-18T03:56:10.575Z,100205.38
2022-08-18T03:58:38.907Z,100194.56
2022-08-18T04:01:08.934Z,100185.19
2022-08-18T04:03:37.551Z,100194.41
2022-08-18T04:06:10.818Z,100193.66
2022-08-18T04:08:41.189Z,100189.31
2022-08-18T04:11:09.622Z,100192.69
2022-08-18T04:13:39.279Z,100190.75
2022-08-18T04:16:10.248Z,100191.50
2022-08-18T04:18:38.808Z,100192.22
2022-08-18T04:21:13.410Z,100194.03
2022-08-18T04:23:44.188Z,100197.53
2022-08-18T04:26:19.289Z,100204.59
2022-08-18T04:28:48.180Z,100194.78
2022-08-18T04:31:23.567Z,100200.09
2022-08-18T04:33:52.392Z,100195.63
2022-08-18T04:36:20.998Z,100196.47
2022-08-18T04:38:49.771Z,100201.81
2022-08-18T04:41:18.718Z,100209.72
2022-08-18T04:43:50.392Z,100211.41
2022-08-18T04:46:20.265Z,100221.25
2022-08-18T04:48:59.040Z,100227.88
2022-08-18T04:52:33.975Z,100223.00
2022-08-18T04:54:18.070Z,100221.66
2022-08-18T04:56:46.719Z,100225.38
2022-08-18T04:59:15.711Z,100225.63
2022-08-18T05:01:48.077Z,100228.44
2022-08-18T05:04:18.670Z,100239.94
2022-08-18T05:06:47.519Z,100242.94
2022-08-18T05:09:23.184Z,100246.19
2022-08-18T05:11:52.334Z,100235.34
2022-08-18T05:14:21.404Z,100240.06
2022-08-18T05:16:51.973Z,100241.03
2022-08-18T05:19:26.655Z,100242.94
2022-08-18T05:22:00.091Z,100245.63
2022-08-18T05:24:37.227Z,100252.66
2022-08-18T05:27:08.097Z,100254.38
2022-08-18T05:29:41.907Z,100256.06
2022-08-18T05:32:37.263Z,100261.38
2022-08-18T05:35:08.425Z,100246.22
2022-08-18T05:37:47.738Z,100255.22
2022-08-18T05:40:17.570Z,100261.38
2022-08-18T05:42:48.694Z,100258.00
2022-08-18T05:45:19.925Z,100248.41
2022-08-18T05:47:49.860Z,100252.91
2022-08-18T05:50:21.394Z,100249.47
2022-08-18T05:52:56.673Z,100249.47
2022-08-18T05:55:49.974Z,100260.38
2022-08-18T05:58:23.712Z,100253.34
2022-08-18T06:01:05.463Z,100254.41
2022-08-18T06:03:45.025Z,100247.38
2022-08-18T06:06:20.916Z,100249.19
2022-08-18T06:09:04.181Z,100248.44
2022-08-18T06:11:32.762Z,100250.16
2022-08-18T06:14:01.345Z,100239.50
2022-08-18T06:16:50.662Z,100250.16
2022-08-18T06:19:39.319Z,100246.53
2022-08-18T06:22:20.636Z,100242.69
2022-08-18T06:25:01.950Z,100233.50
2022-08-18T06:27:41.045Z,100238.38
2022-08-18T06:30:18.804Z,100239.59
2022-08-18T06:33:11.581Z,100248.13
2022-08-18T06:35:49.351Z,100249.34
2022-08-18T06:38:45.726Z,100246.97
2022-08-18T06:41:40.457Z,100248.94
2022-08-18T06:44:11.392Z,100254.78
2022-08-18T06:46:48.238Z,100254.56
2022-08-18T06:49:29.469Z,100257.97
2022-08-18T06:51:59.300Z,100258.59
2022-08-18T06:54:30.819Z,100254.72
2022-08-18T06:57:01.087Z,100253.66
2022-08-18T06:59:33.277Z,100255.09
2022-08-18T07:02:17.346Z,100262.78
2022-08-18T07:05:01.892Z,100252.94
2022-08-18T07:07:50.901Z,100265.72
2022-08-18T07:10:33.997Z,100265.47
2022-08-18T07:13:16.704Z,100271.41
2022-08-18T07:15:48.169Z,100286.34
2022-08-18T07:18:24.263Z,100290.84
2022-08-18T07:20:56.845Z,100290.84
2022-08-18T07:23:32.071Z,100298.13
2022-08-18T07:26:08.856Z,100289.38
2022-08-18T07:28:41.762Z,100291.09
2022-08-18T07:31:21.103Z,100290.09
2022-08-18T07:33:57.916Z,100290.63
2022-08-18T07:36:36.587Z,100292.31
2022-08-18T07:39:16.592Z,100300.81
2022-08-18T07:41:51.790Z,100303.13
2022-08-18T07:44:27.466Z,100294.88
2022-08-18T07:47:01.398Z,100303.50
2022-08-18T07:49:36.100Z,100302.41
2022-08-18T07:52:19.234Z,100307.88
2022-08-18T07:55:07.533Z,100304.72
2022-08-18T07:57:48.827Z,100302.56
2022-08-18T08:00:54.803Z,100312.78
2022-08-18T08:03:31.400Z,100314.22
2022-08-18T08:06:11.636Z,100313.97
2022-08-18T08:08:50.420Z,100308.41
2022-08-18T08:11:34.372Z,100314.75
2022-08-18T08:14:27.612Z,100319.09
2022-08-18T08:17:08.343Z,100308.41
2022-08-18T08:20:00.458Z,100316.44
2022-08-18T08:22:38.340Z,100321.69
2022-08-18T08:25:42.818Z,100319.72
2022-08-18T08:28:24.594Z,100311.59
2022-08-18T08:31:33.429Z,100313.28
2022-08-18T08:34:08.028Z,100308.78
2022-08-18T08:36:41.983Z,100309.38
2022-08-18T08:39:19.153Z,100311.81
2022-08-18T08:41:57.518Z,100310.63
2022-08-18T08:45:01.815Z,100304.19
2022-08-18T08:47:38.017Z,100303.09
2022-08-18T08:50:13.180Z,100308.19
2022-08-18T08:52:47.425Z,100304.53
2022-08-18T08:55:25.389Z,100306.97
2022-08-18T08:58:02.113Z,100299.69
2022-08-18T09:00:32.302Z,100309.16
2022-08-18T09:03:29.959Z,100319.84
2022-08-18T09:06:22.069Z,100329.44
2022-08-18T09:09:13.936Z,100333.56
2022-08-18T09:12:24.973Z,100334.91
2022-08-18T09:15:46.422Z,100331.72
2022-08-18T09:18:43.991Z,100340.97
2022-08-18T09:21:31.187Z,100339.00
2022-08-18T09:24:11.087Z,100345.56
2022-08-18T09:26:50.409Z,100346.81
2022-08-18T09:29:25.892Z,100343.63
2022-08-18T09:32:58.355Z,100352.25
2022-08-18T09:35:52.060Z,100361.84
2022-08-18T09:38:45.575Z,100368.63
2022-08-18T09:41:32.750Z,100377.41
2022-08-18T09:44:21.533Z,100375.47
2022-08-18T09:46:59.376Z,100371.53
2022-08-18T09:49:51.238Z,100372.28
2022-08-18T09:52:59.153Z,100358.41
2022-08-18T09:56:05.163Z,100363.97
2022-08-18T09:59:00.849Z,100363.19
2022-08-18T10:01:42.902Z,100359.28
2022-08-18T10:04:33.207Z,100354.06
2022-08-18T10:07:38.877Z,100364.78
2022-08-18T10:10:59.713Z,100361.63
2022-08-18T10:13:24.775Z,100349.00
2022-08-18T10:16:15.154Z,100348.94
2022-08-18T10:19:12.098Z,100359.66
2022-08-18T10:22:13.714Z,100361.16
2022-08-18T10:24:55.565Z,100351.66
2022-08-18T10:27:52.987Z,100345.59
2022-08-18T10:31:13.499Z,100352.16
2022-08-18T10:37:06.351Z,100346.72
2022-08-18T10:39:51.144Z,100349.47
2022-08-18T10:42:28.570Z,100354.81
2022-08-18T10:45:12.217Z,100351.44
2022-08-18T10:47:45.138Z,100348.41
2022-08-18T10:50:23.138Z,100348.16
2022-08-18T10:53:39.491Z,100350.72
2022-08-18T10:56:05.335Z,100344.38
2022-08-18T10:59:15.998Z,100358.00
2022-08-18T11:02:29.645Z,100352.66
2022-08-18T11:05:00.046Z,100344.63
2022-08-18T11:07:34.446Z,100337.47
2022-08-18T11:10:58.033Z,100318.66
2022-08-18T11:13:18.024Z,100296.28
2022-08-18T11:16:04.433Z,100285.75
2022-08-18T11:18:45.191Z,100277.72
2022-08-18T11:21:31.300Z,100282.03
2022-08-18T11:24:16.069Z,100279.09
2022-08-18T11:26:52.812Z,100270.34
2022-08-18T11:29:37.852Z,100261.06
2022-08-18T11:32:11.186Z,100236.34
2022-08-18T11:34:45.471Z,100253.97
2022-08-18T11:37:49.485Z,100255.44
2022-08-18T11:43:41.067Z,100247.44
2022-08-18T11:46:29.970Z,100255.81
2022-08-18T11:49:02.090Z,100254.06
2022-08-18T11:51:34.871Z,100255.44
2022-08-18T11:54:21.910Z,100247.50
2022-08-18T11:56:52.075Z,100239.94
2022-08-18T11:59:54.826Z,100242.59
2022-08-18T12:02:27.223Z,100248.91
2022-08-18T12:05:08.471Z,100246.34
2022-08-18T12:07:57.253Z,100237.97
2022-08-18T12:10:29.691Z,100248.44
2022-08-18T12:15:49.006Z,100244.97
2022-08-18T12:18:26.112Z,100251.13
2022-08-18T12:20:58.963Z,100241.84
2022-08-18T12:23:27.981Z,100237.56
2022-08-18T12:26:27.331Z,100245.00
2022-08-18T12:29:01.494Z,100237.63
2022-08-18T12:31:42.358Z,100243.56
2022-08-18T12:34:25.118Z,100240.38
2022-08-18T12:37:01.301Z,100240.38
2022-08-18T12:39:30.835Z,100233.84
2022-08-18T12:42:01.067Z,100232.09
2022-08-18T12:44:30.492Z,100235.59
2022-08-18T12:46:59.727Z,100220.88
2022-08-18T12:49:29.699Z,100219.28
2022-08-18T12:51:58.493Z,100221.09
2022-08-18T12:54:27.165Z,100216.97
2022-08-18T12:56:58.786Z,100207.81
2022-08-18T12:59:32.498Z,100202.19
2022-08-18T13:02:06.897Z,100198.94
2022-08-18T13:04:39.194Z,100189.03
2022-08-18T13:07:08.850Z,100195.72
2022-08-18T13:09:52.813Z,100189.50
2022-08-18T13:12:25.566Z,100185.88
2022-08-18T13:14:55.638Z,100187.34
2022-08-18T13:17:30.449Z,100172.16
2022-08-18T13:20:08.498Z,100176.78
2022-08-18T13:22:36.938Z,100168.19
2022-08-18T13:25:07.542Z,100167.78
2022-08-18T13:27:37.409Z,100168.84
2022-08-18T13:30:16.819Z,100162.69
2022-08-18T13:33:02.480Z,100163.31
2022-08-18T13:35:44.170Z,100158.41
2022-08-18T13:38:21.786Z,100159.94
2022-08-18T13:40:55.978Z,100160.56
2022-08-18T13:43:32.009Z,100153.84
2022-08-18T13:46:01.400Z,100144.25
2022-08-18T13:48:31.423Z,100145.47
2022-08-18T13:51:03.920Z,100150.69
2022-08-18T13:53:32.932Z,100147.94
2022-08-18T13:56:01.802Z,100148.09
2022-08-18T13:58:32.634Z,100142.38
2022-08-18T14:01:39.821Z,100137.06
2022-08-18T14:03:51.830Z,100134.13
2022-08-18T14:06:22.536Z,100127.50
2022-08-18T14:08:52.337Z,100121.31
2022-08-18T14:11:23.498Z,100114.72
2022-08-18T14:13:55.088Z,100106.97
2022-08-18T14:16:26.711Z,100116.16
2022-08-18T14:19:14.056Z,100113.41
2022-08-18T14:22:06.424Z,100111.22
2022-08-18T14:24:58.826Z,100105.84
2022-08-18T14:27:35.230Z,100113.38
2022-08-18T14:30:07.074Z,100108.69
2022-08-18T14:32:49.213Z,100113.97
2022-08-18T14:35:32.873Z,100119.31
2022-08-18T14:38:09.971Z,100118.41
2022-08-18T14:40:43.433Z,100116.00
2022-08-18T14:43:24.868Z,100119.44
2022-08-18T14:45:53.853Z,100118.22
2022-08-18T14:48:33.707Z,100111.31
2022-08-18T14:51:03.660Z,100108.78
2022-08-18T14:53:41.033Z,100113.63
2022-08-18T14:56:16.189Z,100102.28
2022-08-18T14:58:45.309Z,100108.56
2022-08-18T15:01:16.095Z,100108.97
2022-08-18T15:03:51.849Z,100114.00
2022-08-18T15:06:27.080Z,100111.09
2022-08-18T15:08:57.733Z,100118.56
2022-08-18T15:11:26.719Z,100114.28
2022-08-18T15:14:01.041Z,100108.38
2022-08-18T15:16:35.000Z,100118.91
2022-08-18T15:19:58.204Z,100115.06
2022-08-18T15:22:13.231Z,100116.94
2022-08-18T15:25:03.297Z,100122.03
2022-08-18T15:27:42.246Z,100129.53
2022-08-18T15:30:19.409Z,100129.59
2022-08-18T15:32:50.448Z,100125.53
2022-08-18T15:35:20.950Z,100119.25
2022-08-18T15:37:51.442Z,100125.72
2022-08-18T15:40:31.079Z,100124.56
2022-08-18T15:43:09.785Z,100121.69
2022-08-18T15:45:56.267Z,100096.84
2022-08-18T15:48:29.098Z,100101.50
2022-08-18T15:50:57.699Z,100097.22
2022-08-18T15:53:44.853Z,100097.06
2022-08-18T15:56:20.964Z,100096.91
2022-08-18T15:58:50.661Z,100092.94
2022-08-18T16:01:31.937Z,100099.50
2022-08-18T16:04:04.194Z,100099.09
2022-08-18T16:06:33.618Z,100091.75
2022-08-18T16:09:05.453Z,100096.88
2022-08-18T16:11:35.496Z,100105.44
2022-08-18T16:14:03.848Z,100098.63
2022-08-18T16:16:36.324Z,100100.56
2022-08-18T16:19:07.625Z,100103.06
2022-08-18T16:21:40.231Z,100102.19
2022-08-18T16:24:09.890Z,100092.50
2022-08-18T16:26:39.620Z,100099.03
2022-08-18T16:29:08.042Z,100099.47
2022-08-18T16:31:36.480Z,100101.56
2022-08-18T16:34:05.832Z,100101.44
2022-08-18T16:36:34.861Z,100097.03
2022-08-18T16:39:03.396Z,100090.19
2022-08-18T16:41:32.172Z,100095.09
2022-08-18T16:44:02.784Z,100089.88
2022-08-18T16:46:32.093Z,100093.63
2022-08-18T16:49:01.205Z,100098.38
2022-08-18T16:51:30.220Z,100101.41
2022-08-18T16:53:59.468Z,100090.78
2022-08-18T16:56:31.110Z,100098.72
2022-08-18T16:59:18.814Z,100095.03
2022-08-18T17:02:04.492Z,100095.38
2022-08-18T17:04:34.838Z,100085.25
2022-08-18T17:07:05.721Z,100087.75
2022-08-18T17:09:35.408Z,100082.66
2022-08-18T17:12:05.137Z,100079.09
2022-08-18T17:14:36.830Z,100085.16
2022-08-18T17:17:07.607Z,100077.72
2022-08-18T17:19:37.515Z,100075.88
2022-08-18T17:22:08.111Z,100074.69
2022-08-18T17:24:37.661Z,100080.03
2022-08-18T17:27:26.703Z,100074.28
2022-08-18T17:30:06.976Z,100086.28
2022-08-18T17:32:42.945Z,100086.69
2022-08-18T17:35:26.940Z,100089.97
2022-08-18T17:38:04.700Z,100095.06
2022-08-18T17:40:41.050Z,100100.19
2022-08-18T17:43:15.083Z,100096.91
2022-08-18T17:45:48.212Z,100100.13
2022-08-18T17:48:23.625Z,100096.69
2022-08-18T17:51:15.668Z,100102.28
2022-08-18T17:53:45.340Z,100104.34
2022-08-18T17:56:19.301Z,100098.03
2022-08-18T17:58:56.429Z,100105.03
2022-08-18T18:01:28.822Z,100105.63
2022-08-18T18:03:57.433Z,100117.00
2022-08-18T18:06:34.036Z,100102.47
2022-08-18T18:09:05.764Z,100119.88
2022-08-18T18:11:37.519Z,100108.72
2022-08-18T18:14:26.958Z,100112.28
2022-08-18T18:17:12.735Z,100118.25
2022-08-18T18:19:43.348Z,100111.78
2022-08-18T18:22:21.049Z,100107.00
2022-08-18T18:24:54.251Z,100104.94
2022-08-18T18:27:31.251Z,100106.50
2022-08-18T18:30:03.252Z,100102.56
2022-08-18T18:32:38.449Z,100105.13
2022-08-18T18:35:17.146Z,100104.88
2022-08-18T18:37:50.651Z,100096.41
2022-08-18T18:40:28.757Z,100101.53
2022-08-18T18:42:59.484Z,100102.91
2022-08-18T18:45:32.432Z,100099.97
2022-08-18T18:48:51.064Z,100110.56
2022-08-18T18:51:11.975Z,100110.31
2022-08-18T18:53:53.204Z,100111.84
2022-08-18T18:56:29.761Z,100121.19
2022-08-18T18:59:14.165Z,100123.44
2022-08-18T19:01:55.562Z,100122.16
2022-08-18T19:04:35.223Z,100123.56
2022-08-18T19:07:21.258Z,100134.88
2022-08-18T19:10:00.261Z,100132.63
2022-08-18T19:12:34.298Z,100132.06
2022-08-18T19:15:10.636Z,100137.94
2022-08-18T19:17:45.152Z,100138.47
2022-08-18T19:20:19.093Z,100147.78
2022-08-18T19:22:55.665Z,100147.22
2022-08-18T19:25:28.196Z,100158.22
2022-08-18T19:28:03.409Z,100151.47
2022-08-18T19:30:34.316Z,100157.09
2022-08-18T19:33:06.634Z,100158.22
2022-08-18T19:35:47.341Z,100154.94
2022-08-18T19:38:26.740Z,100160.44
2022-08-18T19:41:05.519Z,100153.69
2022-08-18T19:43:42.038Z,100162.09
2022-08-18T19:46:18.519Z,100154.50
2022-08-18T19:48:55.951Z,100151.09
2022-08-18T19:51:33.459Z,100148.81
2022-08-18T19:54:28.762Z,100146.56
2022-08-18T19:57:22.305Z,100147.94
2022-08-18T20:00:21.659Z,100148.47
2022-08-18T20:03:45.894Z,100154.34
2022-08-18T20:07:03.557Z,100149.53
2022-08-18T20:10:10.541Z,100147.22
2022-08-18T20:13:12.174Z,100147.50
2022-08-18T20:16:15.503Z,100147.75
2022-08-18T20:18:48.206Z,100147.75
2022-08-18T20:21:45.298Z,100154.13
2022-08-18T20:24:40.569Z,100152.41
2022-08-18T20:27:27.761Z,100157.47
2022-08-18T20:30:28.677Z,100152.13
2022-08-18T20:33:21.161Z,100151.16
2022-08-18T20:36:04.164Z,100161.88
2022-08-18T20:38:36.783Z,100162.56
2022-08-18T20:41:43.454Z,100170.59
2022-08-18T20:44:58.716Z,100164.56
2022-08-18T20:47:57.726Z,100162.16
2022-08-18T20:50:52.006Z,100169.44
2022-08-18T20:53:54.593Z,100167.03
2022-08-18T20:56:46.440Z,100153.06
2022-08-18T20:59:21.636Z,100156.88
2022-08-18T21:02:00.232Z,100168.81
2022-08-18T21:04:49.427Z,100167.38
2022-08-18T21:07:36.283Z,100172.72
2022-08-18T21:10:14.595Z,100180.06
2022-08-18T21:12:53.755Z,100179.44
2022-08-18T21:15:26.447Z,100187.47
2022-08-18T21:18:01.013Z,100175.22
2022-08-18T21:20:31.455Z,100173.50
2022-08-18T21:23:09.895Z,100178.28
2022-08-18T21:25:42.027Z,100172.34
2022-08-18T21:28:13.398Z,100169.78
2022-08-18T21:31:42.964Z,100173.13
2022-08-18T21:33:52.511Z,100162.69
2022-08-18T21:36:25.407Z,100159.53
2022-08-18T21:39:06.222Z,100157.34
2022-08-18T21:41:42.136Z,100163.34
2022-08-18T21:44:23.079Z,100161.06
2022-08-18T21:46:52.438Z,100174.81
2022-08-18T21:49:29.051Z,100172.53
2022-08-18T21:51:58.338Z,100180.06
2022-08-18T21:54:32.154Z,100182.25
2022-08-18T21:57:25.630Z,100175.59
2022-08-18T22:00:25.034Z,100170.66
2022-08-18T22:03:15.195Z,100176.25
2022-08-18T22:05:58.752Z,100187.91
2022-08-18T22:08:32.668Z,100196.19
2022-08-18T22:12:01.138Z,100208.81
2022-08-18T22:14:54.306Z,100211.50
2022-08-18T22:17:33.512Z,100209.78
2022-08-18T22:20:44.793Z,100212.69
2022-08-18T22:23:52.109Z,100217.19
2022-08-18T22:26:27.377Z,100217.81
2022-08-18T22:29:03.800Z,100225.69
2022-08-18T22:31:35.708Z,100224.59
2022-08-18T22:34:13.521Z,100226.28
2022-08-18T22:36:47.075Z,100227.03
2022-08-18T22:39:23.940Z,100228.72
2022-08-18T22:41:52.732Z,100220.59
2022-08-18T22:44:21.229Z,100218.75
2022-08-18T22:46:50.215Z,100224.09
2022-08-18T22:49:21.277Z,100225.78
2022-08-18T22:51:53.541Z,100223.25
2022-08-18T22:54:23.105Z,100226.78
2022-08-18T22:56:56.462Z,100219.75
2022-08-18T22:59:27.127Z,100224.09
2022-08-18T23:01:57.194Z,100219.75
2022-08-18T23:04:27.978Z,100219.75
2022-08-18T23:06:57.413Z,100225.09
2022-08-18T23:09:29.147Z,100216.34
2022-08-18T23:12:02.923Z,100217.31
2022-08-18T23:14:33.070Z,100213.91
2022-08-18T23:17:02.282Z,100218.53
2022-08-18T23:19:32.844Z,100211.59
2022-08-18T23:22:03.375Z,100218.03
2022-08-18T23:24:32.517Z,100213.66
2022-08-18T23:27:00.916Z,100210.25
2022-08-18T23:29:29.389Z,100210.41
2022-08-18T23:31:58.012Z,100206.16
2022-08-18T23:34:27.335Z,100211.38
2022-08-18T23:37:01.346Z,100221.19
2022-08-18T23:39:32.273Z,100215.16
2022-08-18T23:42:02.009Z,100223.88
2022-08-18T23:44:31.388Z,100218.53
2022-08-18T23:47:01.321Z,100218.53
2022-08-18T23:49:31.405Z,100223.88
2022-08-18T23:52:01.826Z,100238.97
2022-08-18T23:54:35.288Z,100237.13
2022-08-18T23:57:04.439Z,100240.53
2022-08-18T23:59:32.997Z,100245.00
